Create Custom Reports and Graphics: Custom Report

Latest Observations

Map

15 Minute Data

Latest Observation

20 Stations

15 Minute Data | America/Los_Angeles
as of 4/21/24 8:02 AM PDT
Station Date Time Temp 5ft (°F) Temp 30ft (°F) Inversion (°F) RH (%) Dew Pt (°F) Wind Spd (mph) Wind Gust (mph) Solar Rad (W/m2) Daily Min Temp (°F) Daily Max Temp (°F) Daily Rain (In) Daily ETo (in)
Shandon ETo (SLO-1) 4/21/24 0800 51.5   5.6 51.9   6.1 0.4 89   10 48.4   2.8 0.0   0.1 2.4   0.3 268   138 43.3   2.5 52.6   4.5 0.00 0.000   0.000
Creston Rd (SLO-2) 4/21/24 0800 52.5   5.7 52.8   6.3 0.3 82   18 47.1   0.3 0.0   0.0 0.0   0.0 250   165 41.6   0.0 54.2   6.8 0.00 0.000   0.000
NE Paso Robles (SLO-3) 4/21/24 0800 52.6   4.7 52.4   4.9 -0.3 92   8 50.5   2.6 0.0   0.0 0.0   1.7 266   186 42.6   0.3 53.9   5.3 0.00 0.000   0.000
Cross Canyon Rd (SLO-4) 4/21/24 0800 54.2   5.9 53.4   5.3 -0.8 80   20 48.3   0.1 0.0   0.0 1.4   1.4 267   198 41.1   1.2 55.8   7.3 0.00 0.000   0.000
Willow Creek (SLO-5) 4/21/24 0800 53.3   8.0 54.2   9.1 1.0 75   23 45.7   0.9 0.0   0.0 0.0   0.0 282   148 41.1   1.7 60.6   15.0 0.00 0.000   0.000
Shell Creek Rd (SLO-6) 4/21/24 0800 54.9   2.9 54.5   2.1 -0.4 86   9 50.9   0.0 0.0   0.0 0.0   1.7 279   19 37.6   0.0 56.5   3.6 0.00 0.000   0.000
South Shandon (SLO-7) 4/21/24 0800 54.3   7.7 52.6   6.6 -1.7 80   6 48.2   5.6 0.5   0.4 3.8   1.7 260   120 39.1   1.1 55.2   8.3 0.00 0.000   0.000
South Creston (SLO-8) 4/21/24 0800 53.5   6.8 53.0   6.5 -0.5 77   23 46.4   0.2 1.5   1.5 4.4   4.4 265   145 39.4   0.0 55.2   8.3 0.00 0.000   0.000
Pozo Rd (SLO-9) 4/21/24 0800 50.9   5.6 50.5   5.1 -0.4 94   6 49.1   4.0 0.5   0.5 3.8   3.8 259   156 37.6   0.7 52.0   6.5 0.00 0.000   0.000
Experimental Station (SLO-10) 4/21/24 0800 50.8   3.4 51.7   4.6 0.9 79   20 44.4   2.6 2.4   0.8 4.8   0.7 262   202 42.8   0.3 53.5   4.9 0.00 0.000   0.000
Vineyard Drive (SLO-11) 4/21/24 0800 52.5   6.8 53.8   8.5 1.3 82   18 47.2   1.6 1.2   1.3 3.1   1.3 254   70 40.1   2.6 55.0   8.6 0.00 0.000   0.000
Von Dollen Road (SLO-12) 4/21/24 0800 53.7   6.9 52.1   6.0 -1.5 86   8 49.7   4.4 0.0   0.0 0.7   0.7 244   150 43.6   0.5 54.7   6.1 0.00 0.000   0.000
Templeton Gap West (SLO-13) 4/21/24 0800 54.9   7.6 55.0   7.8 0.1 77   23 47.8   0.6 0.0   0.0 0.0   0.0 261   176 38.9   0.2 55.9   8.2 0.00 0.000   0.000
Orcutt Road (SLO-14) 4/21/24 0745 58.1   7.7 57.6   7.4 -0.6 74   24 49.9   0.0 0.7   0.1 4.1   1.3 203   161 47.4   2.0 60.8   10.0 0.00 0.000   0.000
Tiffany Ranch Rd (SLO-15) 4/21/24 0800 59.0   7.4 59.2   8.2 0.2 77   21 51.8   0.7 0.0   0.0 0.0   0.0 276   220 45.9   4.2 59.8   8.1 0.00 0.000   0.000
Chimney Rock Rd (SLO-16) 4/21/24 0800 50.8   4.5 57.5   11.5 6.7 87   12 47.1   1.0 0.0   0.3 0.0   3.1 221   56 41.8   1.2 54.3   6.8 0.00 0.000   0.000
Nipomo Mesa (SLO-17) 4/21/24 0800 68.0   16.3 69.2   18.2 1.3 51   46 48.9   1.8 1.7   0.9 4.4   0.3 267   188 45.9   4.3 68.9   16.5 0.00 0.000   0.000
Morro Creek (SLO-18) 4/21/24 0800 53.2   1.6 52.8   2.0 -0.4 99   1 52.9   2.0 0.0   0.0 0.0   0.0 206   101 42.3   7.9 54.0   2.1 0.00 0.000   0.000
Paso Robles Airport ETo 4/21/24 0800 51.2   3.2 51.5   3.8 0.3 83   15 46.3   1.3 0.5   0.5 3.4   3.4 272   217 42.2   0.7 52.8   4.3 0.00 0.000   0.000
West Shandon (SLO-20) 4/21/24 0800 52.9   5.4 52.4   5.3 -0.4 89   3 49.6   4.5 2.1   2.0 4.1   2.3 269   131 41.8   1.4 53.9   6.0 0.00 0.000   0.000
Max     68.0 69.2 6.7 99 52.9 2.4 4.8 282 47.4 68.9 0.00 0.000
Avg     54.1 54.4 0.3 82 48.5 0.5 2.0 257 - - - -
Min     50.8 50.5 -1.7 51 44.4 0.0 0.0 203 37.6 52.0 0.00 0.000

Latest Observation

20 Stations

Daily Data | America/Los_Angeles
as of 4/21/24 8:02 AM PDT
Station Date Daily Max Temp 5ft (°F) Time of Max Temp Daily Min Temp 5ft (°F) Time of Min Temp Daily Rain (In) Month Precip (In) Season Precip (In) Wind Spd (mph) Daily Max Wind (mph) Time of Max Wind Dew Pt (°F) Max RH (%) Min RH (%) Daily Max Temp 30ft (°F) Daily Min Temp 30ft (°F) Max Inversion (°F) Max Inversion Time Min Inversion (°F) Min Inversion Time Daily Solar Rad (Cal/cm2) MinBV Day (V)
Shandon ETo (SLO-1) 4/20/24 79.8 1636 40.8 0637 0.00 1.52 12.31 2.8 14.8 1148 49.8 99 37 80.5 40.7 8.1 2232 -4.1 1131 595 12.4
Creston Rd (SLO-2) 4/20/24 79.6 1623 41.6 0449 0.00 2.03 13.99 2.9 12.5 1415 48.5 100 32 79.6 43.4 4.5 2230 -4.0 1107 557 12.4
NE Paso Robles (SLO-3) 4/20/24 81.9 1531 42.3 0457 0.00 1.50 13.60 2.7 11.8 1620 49.9 100 34 81.2 43.4 4.2 0042 -4.5 1325 555 12.4
Cross Canyon Rd (SLO-4) 4/20/24 81.2 1655 42.2 0433 0.00 1.62 15.25 4.1 13.5 1908 49.7 100 35 81.1 43.2 6.1 0055 -5.5 1248 531 12.4
Willow Creek (SLO-5) 4/20/24 81.0 1713 39.5 0628 0.00 2.00 26.01 2.5 14.2 1542 45.3 99 25 81.8 40.4 5.0 0040 -4.0 1219 600 12.4
Shell Creek Rd (SLO-6) 4/20/24 80.5 1705 37.6 0612 0.00 1.47 12.22 2.0 11.1 1143 51.0 100 42 80.2 39.2 9.9 2040 -4.9 1210 634 12.4
South Shandon (SLO-7) 4/20/24 80.3 1626 40.2 0508 0.00 1.66 11.89 2.8 11.1 1145 48.9 88 41 80.2 42.1 11.6 2108 -4.3 1155 580 12.4
South Creston (SLO-8) 4/20/24 80.9 1717 39.4 0613 0.00 2.53 14.60 2.4 12.5 1319 48.6 100 32 81.1 41.4 7.1 2128 -4.1 1041 577 12.4
Pozo Rd (SLO-9) 4/20/24 79.2 1612 38.3 0624 0.00 3.21 25.36 2.5 14.2 1605 48.8 100 36 79.6 39.6 5.6 2021 -3.3 1211 573 12.4
Experimental Station (SLO-10) 4/20/24 80.1 1654 43.0 0506 0.00 1.68 17.84 3.7 14.2 1419 47.8 99 31 80.4 43.7 2.9 0055 -4.3 1057 522 12.4
Vineyard Drive (SLO-11) 4/20/24 80.2 1702 37.4 0620 0.00 2.46 30.60 2.7 11.5 1115 47.8 100 30 81.7 40.3 9.0 2357 -3.2 1021 614 12.4
Von Dollen Road (SLO-12) 4/20/24 79.9 1639 43.2 0508 0.00 1.39 14.80 1.4 12.5 1416 51.1 95 44 79.8 44.5 7.2 2100 -5.9 1059 574 12.4
Templeton Gap West (SLO-13) 4/20/24 80.6 1512 38.7 0506 0.00 1.65 18.62 2.3 18.5 2040 48.4 100 29 81.6 41.0 9.6 2219 -4.4 1046 549 12.4
Orcutt Road (SLO-14) 4/20/24 68.9 1339 49.4 0556 0.00 2.56 24.53 2.9 12.8 1616 52.8 100 72 68.2 49.2 9.6 0043 -3.4 1338 523 12.5
Tiffany Ranch Rd (SLO-15) 4/20/24 70.8 1342 46.3 0006 0.00 2.39 20.49 1.9 12.8 1614 53.1 100 69 70.1 47.6 4.1 0032 -3.9 1303 512 12.4
Chimney Rock Rd (SLO-16) 4/20/24 80.4 1640 40.6 0617 0.00 1.98 24.24 1.5 9.1 1248 49.1 100 34 80.7 41.8 8.4 2214 -4.8 1218 648 12.3
Nipomo Mesa (SLO-17) 4/20/24 74.3 1817 46.3 0028 0.00 3.72 23.72 1.4 9.8 1353 53.0 100 58 74.2 49.7 5.9 2342 -5.0 1630 519 12.5
Morro Creek (SLO-18) 4/20/24 61.4 1713 45.1 0006 0.00 2.08 19.14 0.8 10.1 1357 51.3 100 79 60.8 47.3 6.0 0028 -5.3 1350 538 12.4
Paso Robles Airport ETo 4/20/24 78.9 1609 42.9 0428 0.00 1.51 16.77 3.9 16.2 1625 48.1 99 32 79.5 42.3 3.6 2208 -3.8 1149 547 12.4
West Shandon (SLO-20) 4/20/24 81.4 1650 40.4 0612 0.00 1.54 11.33 2.7 12.1 1143 50.2 93 38 81.0 42.4 8.3 2228 -4.6 1130 596 12.4
Max   81.9 - 49.4 - 0.00 3.72 30.60 4.1 18.5 - 53.1 100 79 81.8 49.7 11.6 - -3.2 - 648 12.5
Avg   - - - - - - - 2.5 - - 49.7 - - - - - - - - - -
Min   61.4 - 37.4 - 0.00 1.39 11.33 0.8 9.1 - 45.3 88 25 60.8 39.2 2.9 - -5.9 - 512 12.3

Latest Observation

20 Stations

Daily Data | America/Los_Angeles
as of 4/21/24 8:02 AM PDT
Station Date Daily ETo (in) 7 Day ETo (in) Hrs 70-85F (hrs) Hrs > 95F (hrs) Powdery Mildew Stress (pts) GDDs (DL) GDDs (Mx/Mn) Seas GDDs (DL) Seas GDDs (Smpl) Hrs <= 32F (hrs) Hrs <= 28F (hrs) Chilling <=45F (hrs) Chill Hrs 32-45F (hrs) Utah Chilling (Units) Chill Portions
Shandon ETo (SLO-1) 4/20/24 0.178 1.06 6.90 0.00 40 10.8 10.3 130 116 0.0 0.0 4.9 4.9 1.0 -
Creston Rd (SLO-2) 4/20/24 0.174 1.02 6.70 0.00 10 10.8 10.6 123 107 0.0 0.0 3.9 3.9 0.0 -
NE Paso Robles (SLO-3) 4/20/24 0.172 1.08 6.63 0.00 0 10.8 12.1 135 132 0.0 0.0 3.0 3.0 0.5 -
Cross Canyon Rd (SLO-4) 4/20/24 0.174 1.08 6.84 0.00 50 11.3 11.7 140 128 0.0 0.0 1.5 1.5 0.0 -
Willow Creek (SLO-5) 4/20/24 0.194 1.03 7.95 0.00 0 13.0 10.2 111 83 0.0 0.0 6.8 6.8 0.0 -
Shell Creek Rd (SLO-6) 4/20/24 0.190 1.12 8.50 0.00 40 11.8 9.0 133 85 0.0 0.0 6.1 6.1 2.5 -
South Shandon (SLO-7) 4/20/24 0.168 1.04 6.59 0.00 40 10.5 10.2 126 93 0.0 0.0 5.7 5.7 -7.0 -
South Creston (SLO-8) 4/20/24 0.173 1.07 6.83 0.00 40 10.5 10.1 132 98 0.0 0.0 5.2 5.2 2.0 -
Pozo Rd (SLO-9) 4/20/24 0.167 0.99 6.30 0.00 10 9.8 8.7 108 64 0.0 0.0 6.8 6.8 -6.5 -
Experimental Station (SLO-10) 4/20/24 0.172 1.03 6.29 0.00 10 10.5 11.6 128 116 0.0 0.0 2.0 2.0 0.5 -
Vineyard Drive (SLO-11) 4/20/24 0.181 1.04 7.08 0.00 0 11.2 8.8 107 79 0.0 0.0 6.7 6.7 0.5 -
Von Dollen Road (SLO-12) 4/20/24 0.163 1.03 6.30 0.00 0 10.3 11.6 128 122 0.0 0.0 1.2 1.2 1.0 -
Templeton Gap West (SLO-13) 4/20/24 0.176 1.01 7.37 0.00 0 11.2 9.6 116 82 0.0 0.0 4.3 4.3 1.5 -
Orcutt Road (SLO-14) 4/20/24 0.132 0.95 0.00 0.00 0 6.0 9.2 109 107 0.0 0.0 0.0 0.0 2.5 -
Tiffany Ranch Rd (SLO-15) 4/20/24 0.137 0.98 0.68 0.00 0 6.7 8.5 113 92 0.0 0.0 0.0 0.0 3.5 -
Chimney Rock Rd (SLO-16) 4/20/24 0.187 1.14 6.96 0.00 0 11.0 10.5 117 92 0.0 0.0 4.7 4.7 1.5 -
Nipomo Mesa (SLO-17) 4/20/24 0.136 0.95 1.38 0.00 0 7.0 10.3 121 107 0.0 0.0 0.0 0.0 3.0 -
Morro Creek (SLO-18) 4/20/24 0.131 0.88 0.00 0.00 0 4.1 3.2 88 84 0.0 0.0 0.0 0.0 4.5 -
Paso Robles Airport ETo 4/20/24 0.176 1.08 6.22 0.00 10 10.2 10.9 128 117 0.0 0.0 1.7 1.7 0.0 90
West Shandon (SLO-20) 4/20/24 0.176 1.07 6.85 0.00 30 11.0 10.9 139 119 0.0 0.0 4.9 4.9 -0.5 89
Max   0.194 1.14 8.50 0.00 - 13.0 12.1 - - 0.0 0.0 6.8 6.8 4.5 90
Avg   - - 5.62 0.00 - 9.9 9.9 - - 0.0 0.0 3.5 3.5 0.5 90
Min   0.131 0.88 0.00 0.00 - 4.1 3.2 - - 0.0 0.0 0.0 0.0 -7.0 89